createdAt,value
2023-08-11T00:04:11.575Z,16.40
2023-08-11T00:14:46.253Z,16.20
2023-08-11T00:25:21.211Z,16.10
2023-08-11T00:35:55.941Z,16.00
2023-08-11T00:46:30.816Z,15.90
2023-08-11T00:57:06.287Z,15.80
2023-08-11T01:07:59.372Z,15.70
2023-08-11T01:18:34.999Z,15.70
2023-08-11T01:29:09.896Z,15.70
2023-08-11T01:39:44.766Z,15.60
2023-08-11T01:50:21.200Z,15.30
2023-08-11T02:00:56.004Z,15.40
2023-08-11T02:11:30.722Z,15.30
2023-08-11T02:22:05.818Z,15.00
2023-08-11T02:32:41.724Z,15.20
2023-08-11T02:43:16.661Z,15.20
2023-08-11T02:53:51.733Z,15.10
2023-08-11T03:04:26.387Z,15.00
2023-08-11T03:15:01.264Z,14.90
2023-08-11T03:25:36.075Z,14.80
2023-08-11T03:36:11.082Z,14.70
2023-08-11T03:46:46.586Z,14.70
2023-08-11T03:57:22.767Z,14.60
2023-08-11T04:07:57.997Z,14.50
2023-08-11T04:18:33.192Z,14.50
2023-08-11T04:29:09.555Z,14.40
2023-08-11T04:39:44.632Z,14.50
2023-08-11T04:50:20.687Z,14.40
2023-08-11T05:00:59.813Z,14.60
2023-08-11T05:11:34.890Z,14.50
2023-08-11T05:22:10.112Z,14.70
2023-08-11T05:32:45.300Z,14.90
2023-08-11T05:43:20.149Z,14.80
2023-08-11T05:53:55.020Z,15.10
2023-08-11T06:04:30.826Z,15.10
2023-08-11T06:15:06.315Z,15.40
2023-08-11T06:25:40.982Z,15.50
2023-08-11T06:36:15.901Z,15.90
2023-08-11T06:46:51.194Z,15.90
2023-08-11T06:57:25.883Z,16.30
2023-08-11T07:08:00.914Z,16.50
2023-08-11T07:18:36.029Z,16.80
2023-08-11T07:29:11.371Z,18.00
2023-08-11T07:39:46.181Z,19.00
2023-08-11T07:50:21.266Z,20.00
2023-08-11T08:00:56.290Z,20.90
2023-08-11T08:11:31.359Z,21.40
2023-08-11T08:22:06.315Z,22.30
2023-08-11T08:32:42.352Z,22.50
2023-08-11T08:43:18.066Z,23.10
2023-08-11T08:53:53.326Z,23.90
2023-08-11T09:04:28.806Z,24.30
2023-08-11T09:15:11.137Z,24.90
2023-08-11T09:25:50.504Z,25.30
2023-08-11T09:36:25.566Z,26.00
2023-08-11T09:47:12.202Z,26.40
2023-08-11T09:57:50.962Z,26.70
2023-08-11T10:08:29.659Z,27.30
2023-08-11T10:19:04.848Z,27.80
2023-08-11T10:29:42.079Z,28.00
2023-08-11T10:40:18.735Z,28.80
2023-08-11T10:50:53.395Z,28.70
2023-08-11T11:01:28.369Z,29.40
2023-08-11T11:12:03.667Z,30.20
2023-08-11T11:22:38.909Z,30.30
2023-08-11T11:33:17.057Z,30.80
2023-08-11T11:43:52.987Z,31.20
2023-08-11T11:54:31.818Z,31.80
2023-08-11T12:05:07.104Z,31.80
2023-08-11T12:15:41.808Z,32.00
2023-08-11T12:26:16.715Z,31.70
2023-08-11T12:36:52.113Z,31.50
2023-08-11T12:47:27.132Z,31.50
2023-08-11T12:58:03.000Z,31.60
2023-08-11T13:08:38.274Z,32.30
2023-08-11T13:19:14.590Z,32.50
2023-08-11T13:29:50.024Z,32.50
2023-08-11T13:40:25.065Z,32.60
2023-08-11T13:50:59.907Z,32.80
2023-08-11T14:01:36.227Z,32.60
2023-08-11T14:12:11.267Z,32.70
2023-08-11T14:22:46.472Z,33.00
2023-08-11T14:33:21.445Z,32.80
2023-08-11T14:43:56.609Z,32.20
2023-08-11T14:54:31.473Z,32.40
2023-08-11T15:05:07.262Z,32.00
2023-08-11T15:15:42.094Z,31.80
2023-08-11T15:26:17.065Z,31.10
2023-08-11T15:36:52.004Z,31.50
2023-08-11T15:47:27.031Z,31.70
2023-08-11T15:58:01.768Z,32.30
2023-08-11T16:08:39.080Z,32.10
2023-08-11T16:19:14.332Z,31.10
2023-08-11T16:29:51.578Z,30.50
2023-08-11T16:40:28.809Z,30.60
2023-08-11T16:51:04.153Z,30.90
2023-08-11T17:01:38.807Z,30.50
2023-08-11T17:12:15.391Z,30.30
2023-08-11T17:22:50.283Z,29.90
2023-08-11T17:33:25.377Z,29.70
2023-08-11T17:44:00.335Z,29.30
2023-08-11T17:54:35.447Z,28.80
2023-08-11T18:05:10.769Z,28.70
2023-08-11T18:15:46.942Z,28.20
2023-08-11T18:26:21.885Z,27.50
2023-08-11T18:36:57.335Z,26.90
2023-08-11T18:47:32.380Z,26.20
2023-08-11T18:58:08.109Z,25.60
2023-08-11T19:08:44.358Z,25.10
2023-08-11T19:19:19.702Z,24.70
2023-08-11T19:29:54.356Z,24.50
2023-08-11T19:40:28.832Z,24.30
2023-08-11T19:51:05.581Z,23.90
2023-08-11T20:01:40.443Z,23.50
2023-08-11T20:12:15.496Z,23.40
2023-08-11T20:22:50.555Z,23.10
2023-08-11T20:33:25.759Z,22.90
2023-08-11T20:44:00.472Z,22.70
2023-08-11T20:54:35.374Z,22.40
2023-08-11T21:05:11.029Z,22.20
2023-08-11T21:15:45.903Z,22.00
2023-08-11T21:26:20.782Z,21.80
2023-08-11T21:36:55.760Z,21.70
2023-08-11T21:47:33.716Z,21.50
2023-08-11T21:58:08.332Z,21.30
2023-08-11T22:08:43.345Z,21.20
2023-08-11T22:19:18.046Z,21.00
2023-08-11T22:29:54.098Z,20.90
2023-08-11T22:40:29.116Z,20.80
2023-08-11T22:51:03.969Z,20.60
2023-08-11T23:01:38.742Z,20.50
2023-08-11T23:12:13.632Z,20.50
2023-08-11T23:22:48.591Z,20.50
2023-08-11T23:33:23.913Z,20.30
2023-08-11T23:43:58.738Z,20.30
2023-08-11T23:54:33.733Z,20.20
